Crooked Creek Research Lab Weather observations

Data are for 10 minute period ending at time listed.
 Day   Time    Ave.   Ave.  Ave.  Vector   Max.   Stn.    Total    Solar   Ave.   Snow 
  of    of     Air    Rel.  Wind   Wind    Wind   Baro.  Precip.   Rad.    Soil   Depth
Year   Day     Temp.  Hum.  Speed  Dir.    Gust   Pres.                    Temp.       
2014   (PST)    F      %     mph   deg.    mph     mb.     in.     W/m2     F      in. 
---------------------------------------------------------------------------------------  
 261    0:00   46.0    67    1.8   203      4.8   705.0    0.00       0    999.0    -0.5
 261    0:10   46.9    66    1.5   188      4.2   705.1    0.00       0    999.0    -0.7
 261    0:20   47.5    65    2.4   180      5.0   705.0    0.00       0    999.0    -0.7
 261    0:30   46.1    68    0.4   154      2.5   705.0    0.00       0    999.0    -0.7
 261    0:40   46.5    67    2.1   153      3.0   704.9    0.00       0    999.0    -0.6
 261    0:50   47.6    66    3.6   165      5.7   704.8    0.00       0    999.0    -0.6
 261    1:00   49.0    63    3.7   156      5.8   704.8    0.00       0    999.0    -0.6
 261    1:10   48.6    64    3.2   139      4.5   704.8    0.00       0    999.0    -0.7
 261    1:20   48.3    64    2.2   149      3.0   704.8    0.00       0    999.0    -0.7
 261    1:30   48.0    65    2.4   146      3.9   704.8    0.00       0    999.0    -0.7
 261    1:40   48.2    65    1.9   154      4.0   704.8    0.00       0    999.0    -0.8
 261    1:50   46.6    69    2.4   161      4.5   704.8    0.00       0    999.0    -0.6
 261    2:00   46.2    69    2.5   156      4.7   704.5    0.00       0    999.0    -0.7
 261    2:10   47.0    68    1.4   181      3.1   704.4    0.00       0    999.0    -0.6
 261    2:20   46.9    68    1.3   156      2.6   704.4    0.00       0    999.0    -0.7
 261    2:30   46.4    69    1.3   180      3.1   704.3    0.00       0    999.0    -0.6
 261    2:40   47.3    67    1.9   164      3.3   704.3    0.00       0    999.0    -0.6
 261    2:50   47.2    67    3.0   156      4.5   704.3    0.00       0    999.0    -0.7
 261    3:00   47.6    66    3.7   155      5.6   704.2    0.00       0    999.0    -0.7
 261    3:10   48.2    64    3.6   168      6.0   704.0    0.00       0    999.0    -0.6
 261    3:20   48.0    64    4.1   154      5.8   704.0    0.00       0    999.0    -0.7
 261    3:30   47.5    65    3.9   146      5.4   704.1    0.00       0    999.0    -0.7
 261    3:40   47.0    66    3.4   147      4.7   704.0    0.00       0    999.0    -0.7
 261    3:50   46.5    67    3.5   145      6.0   704.0    0.00       0    999.0    -0.6
 261    4:00   47.2    65    3.4   155      5.6   704.0    0.00       0    999.0    -0.7
 261    4:10   47.3    65    3.2   156      4.8   704.0    0.00       0    999.0    -0.7
 261    4:20   46.9    66    3.2   149      4.4   704.0    0.00       0    999.0    -0.8
 261    4:30   45.9    68    3.0   225      6.1   704.0    0.00       0    999.0    -0.6
 261    4:40   46.0    68    2.8   214      6.2   704.2    0.00       0    999.0    -0.6
 261    4:50   46.1    69    2.3   193      4.7   704.2    0.00       0    999.0    -0.8
 261    5:00   45.2    71    2.5   159      3.6   704.2    0.00       0    999.0    -0.7
 261    5:10   45.6    70    2.5   172      4.0   704.3    0.00       0    999.0    -0.6
 261    5:20   46.3    68    3.1   161      5.0   704.3    0.00       1    999.0    -0.7
 261    5:30   46.5    67    3.1   152      5.8   704.3    0.00       4    999.0    -0.7
 261    5:40   46.9    66    3.2   149      4.7   704.3    0.00       7    999.0    -0.7
 261    5:50   47.1    66    3.1   154      4.5   704.3    0.00      10    999.0    -0.7
 261    6:00   48.0    64    1.9   159      4.5   704.4    0.00      12    999.0    -0.7
 261    6:10   46.9    66    1.3   165      3.3   704.3    0.00      14    999.0    -0.7
 261    6:20   48.2    63    1.3   143      3.5   704.4    0.00      15    999.0    -0.5
 261    6:30   49.4    60    0.9   165      2.6   704.4    0.00      16    999.0    -0.6
 261    6:40   50.0    58    1.3   191      3.4   704.4    0.00      18    999.0    -0.6
 261    6:50   49.5    59    1.0   150      3.1   704.4    0.00      19    999.0    -0.6
 261    7:00   50.9    55    1.8   192      5.1   704.5    0.00      89    999.0    -0.5
 261    7:10   54.8    48    2.0   239      7.4   704.5    0.00     316    999.0    -0.7
 261    7:20   55.7    46    3.8   241      8.0   704.5    0.00     349    999.0    -0.7
 261    7:30   56.8    44    2.6   210      6.5   704.6    0.00     381    999.0    -0.7
 261    7:40   57.4    43    4.0   233      9.6   704.8    0.00     412    999.0    -0.7
 261    7:50   57.7    42    3.1   208      8.3   704.6    0.00     443    999.0    -0.7
 261    8:00   58.1    40    4.5   236     12.4   704.6    0.00     474    999.0    -0.7
 261    8:10   58.3    38    4.4   215     12.3   704.7    0.00     504    999.0    -0.6
 261    8:20   58.8    38    5.3   232     15.2   704.7    0.00     534    999.0    -0.6
 261    8:30   59.6    37    4.8   213     12.2   704.8    0.00     560    999.0    -0.7
 261    8:40   59.8    36    7.1   221     15.3   704.6    0.00     585    999.0    -0.6
 261    8:50   60.1    36    5.0   208     13.2   704.8    0.00     609    999.0    -0.5
 261    9:00   61.0    35    5.8   231     13.2   704.7    0.00     632    999.0    -0.7
 261    9:10   60.5    36    4.0   214     12.3   704.8    0.00     655    999.0    -0.6
 261    9:20   61.3    35    5.3   227     11.7   704.8    0.00     678    999.0    -0.6
 261    9:30   60.8    35    6.3   232     14.7   704.6    0.00     694    999.0    -0.5
 261    9:40   61.2    36    7.7   236     17.0   704.7    0.00     676    999.0    -0.6
 261    9:50   60.6    36   10.2   244     22.6   704.4    0.00     691    999.0    -0.6
 261   10:00   60.1    36    8.8   238     18.0   704.5    0.00     517    999.0    -0.6
 261   10:10   59.8    37    9.1   234     17.5   704.8    0.00     583    999.0    -0.6
 261   10:20   60.0    37    8.9   241     17.5   704.7    0.00     469    999.0    -0.6
 261   10:30   60.1    38    7.7   244     17.6   704.7    0.00     685    999.0    -0.5
 261   10:40   61.2    37    7.9   224     17.2   704.5    0.00     781    999.0    -0.6
 261   10:50   61.0    38    8.2   235     18.0   704.5    0.00     796    999.0    -0.5
 261   11:00   61.6    36    9.4   238     22.3   704.5    0.00     871    999.0    -0.6
 261   11:10   61.6    36    9.6   228     24.5   704.2    0.00     773    999.0    -0.5
 261   11:20   61.8    37    7.9   230     23.5   704.4    0.00     803    999.0    -0.5
 261   11:30   62.9    34    8.1   218     20.0   704.3    0.00     797    999.0    -0.5
 261   11:40   63.4    35    7.6   229     20.0   704.3    0.00     809    999.0    -0.5
 261   11:50   62.2    38    7.6   211     17.8   704.2    0.00     622    999.0    -0.5
 261   12:00   61.8    37    8.0   219     21.1   704.3    0.00     313    999.0    -0.6
 261   12:10   62.3    36    8.3   234     20.1   704.0    0.00     937    999.0    -0.4
 261   12:20   62.9    34    7.2   132     14.2   704.0    0.00     457    999.0    -0.5
 261   12:30   63.6    35    5.5   137     12.8   704.0    0.00     694    999.0    -0.5
 261   12:40   64.3    36    7.8   222     19.6   703.9    0.00     978    999.0    -0.5
 261   12:50   64.2    37    5.6   169     16.1   703.8    0.00     517    999.0    -0.5
 261   13:00   63.7    39    6.3   165     14.3   703.7    0.00     551    999.0    -0.6
 261   13:10   63.0    42    5.7   143     14.4   703.7    0.00     436    999.0    -0.5
 261   13:20   62.6    46    4.8   152     11.5   703.6    0.00     365    999.0    -0.5
 261   13:30   63.0    43    5.7   191     16.6   703.6    0.00     385    999.0    -0.5
 261   13:40   61.8    49    5.5   135     14.5   703.6    0.00     283    999.0    -0.5
 261   13:50   61.0    54    5.2   149     11.7   703.6    0.00     214    999.0    -0.5
 261   14:00   61.0    50    3.7   164     10.2   703.3    0.00     161    999.0    -0.5
 261   14:10   61.0    50    4.8   148     11.1   703.4    0.00     105    999.0    -0.5
 261   14:20   60.5    52    6.2   140     13.2   703.3    0.00     114    999.0    -0.5
 261   14:30   59.6    56    6.7   134     13.0   703.2    0.00      84    999.0    -0.5
 261   14:40   59.8    56    3.6   180     10.2   703.2    0.00      87    999.0    -0.5
 261   14:50   59.6    56    3.6   163     11.0   703.2    0.00      71    999.0    -0.5
 261   15:00   59.0    57    4.8   149     11.2   703.1    0.00      57    999.0    -0.5
 261   15:10   58.9    56    3.9   136      9.9   703.0    0.00      75    999.0    -0.5
 261   15:20   59.0    55    4.8   151     10.7   703.0    0.00      67    999.0    -0.5
 261   15:30   58.9    55    3.4   152      8.4   702.9    0.00      51    999.0    -0.5
 261   15:40   58.8    54    3.5   159     10.1   702.8    0.00      44    999.0    -0.5
 261   15:50   58.9    54    3.5   142      9.6   702.7    0.00      44    999.0    -0.5
 261   16:00   59.1    56    3.5   163      9.2   702.7    0.00     139    999.0    -0.5
 261   16:10   60.9    54    4.9   140      9.9   702.7    0.00     318    999.0    -0.5
 261   16:20   61.1    56    5.2   157     11.2   702.7    0.00     282    999.0    -0.5
 261   16:30   60.7    57    5.7   152     14.5   702.7    0.00     246    999.0    -0.5
 261   16:40   60.4    58    5.8   148     12.3   702.7    0.00     206    999.0    -0.6
 261   16:50   60.1    58    4.7   177     10.4   702.7    0.00     194    999.0    -0.6
 261   17:00   60.3    57    4.1   156      8.8   702.6    0.00     123    999.0    -0.6
 261   17:10   60.0    48    4.3   220     11.8   702.6    0.00      59    999.0    -0.5
 261   17:20   59.8    47    4.7   138     11.0   702.6    0.00      43    999.0    -0.6
 261   17:30   59.0    48    4.8   124      9.7   702.6    0.00      29    999.0    -0.6
 261   17:40   58.4    49    4.6   123      7.4   702.5    0.00      11    999.0    -0.6
 261   17:50   57.5    51    5.0   129      9.6   702.6    0.00       3    999.0    -0.6
 261   18:00   56.7    54    4.2   130      7.8   702.5    0.00       1    999.0    -0.6
 261   18:10   56.2    55    4.4   159      9.8   702.5    0.00       0    999.0    -0.6
 261   18:20   55.8    56    3.9   135      8.0   702.5    0.00       0    999.0    -0.6
 261   18:30   55.5    56    5.3   124      9.4   702.6    0.00       0    999.0    -0.5
 261   18:40   55.2    57    5.6   120      9.7   702.6    0.00       0    999.0    -0.6
 261   18:50   55.2    57    3.9   140      8.3   702.6    0.00       0    999.0    -0.5
 261   19:00   54.9    58    4.1   135      8.8   702.6    0.00       0    999.0    -0.5
 261   19:10   54.4    59    3.7   141      7.2   702.7    0.00       0    999.0    -0.6
 261   19:20   54.1    60    2.6   133      6.1   702.8    0.00       0    999.0    -0.6
 261   19:30   53.9    62    2.5   174      5.3   702.8    0.00       0    999.0    -0.5
 261   19:40   54.2    66    2.8   175      6.4   702.8    0.00       0    999.0    -0.5
 261   19:50   54.2    67    3.2   192      6.7   702.8    0.00       0    999.0    -0.5
 261   20:00   54.0    69    2.3   152      6.9   702.8    0.00       0    999.0    -0.5
 261   20:10   53.6    69    2.5   156      5.3   702.8    0.00       0    999.0    -0.5
 261   20:20   53.0    71    2.1   147      4.5   702.9    0.00       0    999.0    -0.6
 261   20:30   52.3    71    1.6   174      4.7   702.8    0.00       0    999.0    -0.6
 261   20:40   51.7    73    1.7   164      3.7   702.8    0.00       0    999.0    -0.5
 261   20:50   52.0    73    2.4   143      4.6   702.8    0.00       0    999.0    -0.5
 261   21:00   51.5    74    2.5   150      4.7   702.7    0.00       0    999.0    -0.6
 261   21:10   50.8    75    3.0   155      6.2   702.8    0.00       0    999.0    -0.5
 261   21:20   51.0    71    3.2   168      6.6   702.7    0.00       0    999.0    -0.5
 261   21:30   51.2    65    3.3   174      6.5   702.7    0.00       0    999.0    -0.5
 261   21:40   51.2    63    3.1   158      6.1   702.7    0.00       0    999.0    -0.6
 261   21:50   51.0    63    4.4   140      8.8   702.5    0.00       0    999.0    -0.6
 261   22:00   51.7    61    4.2   148     10.3   702.5    0.00       0    999.0    -0.5
 261   22:10   51.7    60    2.0   224      4.9   702.5    0.00       0    999.0    -0.6
 261   22:20   51.0    62    2.9   165      6.1   702.5    0.00       0    999.0    -0.6
 261   22:30   50.8    62    3.4   156      8.3   702.4    0.00       0    999.0    -0.6
 261   22:40   50.7    61    3.7   159      9.1   702.4    0.00       0    999.0    -0.6
 261   22:50   50.9    60    3.8   138      8.0   702.4    0.00       0    999.0    -0.6
 261   23:00   50.5    61    1.6   177      5.6   702.3    0.00       0    999.0    -0.6
 261   23:10   50.0    61    1.8   177      6.1   702.2    0.00       0    999.0    -0.5
 261   23:20   50.5    60    3.3   186     12.8   702.1    0.00       0    999.0    -0.5
 261   23:30   51.0    58    3.3   167     10.6   702.1    0.00       0    999.0    -0.6
 261   23:40   51.1    58    3.7   187     10.9   701.9    0.00       0    999.0    -0.6
 261   23:50   51.0    58    3.4   157      8.8   701.8    0.00       0    999.0    -0.6

Return to Crooked Creek Research Lab graphs page.


Western Regional Climate Center,wrcc@dri.edu